sensor_id;sensor_type;location;lat;lon;timestamp;pressure;altitude;pressure_sealevel;temperature;humidity
10476;BME280;26166;48.264;11.436;2022-09-09T00:05:23;95964.16;;;22.44;57.40
10476;BME280;26166;48.264;11.436;2022-09-09T00:08:30;95969.53;;;22.44;57.30
10476;BME280;26166;48.264;11.436;2022-09-09T00:11:42;95974.88;;;22.44;57.46
10476;BME280;26166;48.264;11.436;2022-09-09T00:21:06;95973.00;;;22.44;57.35
10476;BME280;26166;48.264;11.436;2022-09-09T00:24:11;95964.16;;;22.44;57.67
10476;BME280;26166;48.264;11.436;2022-09-09T00:27:19;95963.38;;;22.43;57.67
10476;BME280;26166;48.264;11.436;2022-09-09T00:30:26;95964.16;;;22.44;57.48
10476;BME280;26166;48.264;11.436;2022-09-09T00:33:27;95954.53;;;22.42;57.47
10476;BME280;26166;48.264;11.436;2022-09-09T00:36:28;95951.84;;;22.42;57.51
10476;BME280;26166;48.264;11.436;2022-09-09T00:42:36;95965.22;;;22.42;57.62
10476;BME280;26166;48.264;11.436;2022-09-09T00:51:46;95953.72;;;22.42;57.46
10476;BME280;26166;48.264;11.436;2022-09-09T00:55:01;95948.63;;;22.40;57.42
10476;BME280;26166;48.264;11.436;2022-09-09T00:58:06;95953.97;;;22.40;57.52
10476;BME280;26166;48.264;11.436;2022-09-09T01:01:09;95953.97;;;22.40;57.58
10476;BME280;26166;48.264;11.436;2022-09-09T01:04:16;95962.81;;;22.41;57.41
10476;BME280;26166;48.264;11.436;2022-09-09T01:07:20;95953.97;;;22.40;57.48
10476;BME280;26166;48.264;11.436;2022-09-09T01:10:24;95951.03;;;22.42;57.42
10476;BME280;26166;48.264;11.436;2022-09-09T01:13:29;95953.97;;;22.40;57.40
10476;BME280;26166;48.264;11.436;2022-09-09T01:16:33;95951.84;;;22.42;57.74
10476;BME280;26166;48.264;11.436;2022-09-09T01:29:15;95959.34;;;22.40;57.46
10476;BME280;26166;48.264;11.436;2022-09-09T01:35:48;95954.22;;;22.39;57.48
10476;BME280;26166;48.264;11.436;2022-09-09T01:38:54;95952.59;;;22.38;57.36
10476;BME280;26166;48.264;11.436;2022-09-09T01:41:54;95956.06;;;22.38;57.47
10476;BME280;26166;48.264;11.436;2022-09-09T01:44:56;95953.41;;;22.38;57.51
10476;BME280;26166;48.264;11.436;2022-09-09T01:47:56;95953.41;;;22.38;57.31
10476;BME280;26166;48.264;11.436;2022-09-09T01:50:56;95958.75;;;22.38;57.31
10476;BME280;26166;48.264;11.436;2022-09-09T01:53:57;95957.69;;;22.39;57.56
10476;BME280;26166;48.264;11.436;2022-09-09T01:57:09;95953.41;;;22.38;57.67
10476;BME280;26166;48.264;11.436;2022-09-09T02:00:11;95956.06;;;22.38;57.36
10476;BME280;26166;48.264;11.436;2022-09-09T02:06:42;95945.38;;;22.38;57.31
10476;BME280;26166;48.264;11.436;2022-09-09T02:09:44;95950.72;;;22.38;57.29
10476;BME280;26166;48.264;11.436;2022-09-09T02:12:48;95941.09;;;22.37;57.41
10476;BME280;26166;48.264;11.436;2022-09-09T02:16:10;95933.88;;;22.38;57.69
10476;BME280;26166;48.264;11.436;2022-09-09T02:19:32;95933.06;;;22.37;57.54
10476;BME280;26166;48.264;11.436;2022-09-09T02:22:34;95933.06;;;22.37;57.49
10476;BME280;26166;48.264;11.436;2022-09-09T02:25:36;95938.41;;;22.37;57.53
10476;BME280;26166;48.264;11.436;2022-09-09T02:28:36;95937.59;;;22.37;57.30
10476;BME280;26166;48.264;11.436;2022-09-09T02:31:38;95941.91;;;22.38;57.16
10476;BME280;26166;48.264;11.436;2022-09-09T02:34:40;95930.13;;;22.39;57.21
10476;BME280;26166;48.264;11.436;2022-09-09T02:37:42;95930.94;;;22.39;57.50
10476;BME280;26166;48.264;11.436;2022-09-09T02:40:46;95931.75;;;22.40;57.56
10476;BME280;26166;48.264;11.436;2022-09-09T02:43:46;95936.84;;;22.41;57.17
10476;BME280;26166;48.264;11.436;2022-09-09T02:50:03;95929.63;;;22.42;57.40
10476;BME280;26166;48.264;11.436;2022-09-09T02:56:18;95930.44;;;22.42;57.17
10476;BME280;26166;48.264;11.436;2022-09-09T02:59:21;95935.78;;;22.42;57.04
10476;BME280;26166;48.264;11.436;2022-09-09T03:02:21;95925.09;;;22.42;56.97
10476;BME280;26166;48.264;11.436;2022-09-09T03:05:22;95931.25;;;22.43;57.14
10476;BME280;26166;48.264;11.436;2022-09-09T03:08:22;95925.09;;;22.42;57.24
10476;BME280;26166;48.264;11.436;2022-09-09T03:11:22;95917.88;;;22.43;57.08
10476;BME280;26166;48.264;11.436;2022-09-09T03:14:22;95916.00;;;22.44;56.94
10476;BME280;26166;48.264;11.436;2022-09-09T03:17:25;95915.19;;;22.43;56.97
10476;BME280;26166;48.264;11.436;2022-09-09T03:20:26;95923.22;;;22.43;57.07
10476;BME280;26166;48.264;11.436;2022-09-09T03:23:26;95916.81;;;22.44;57.22
10476;BME280;26166;48.264;11.436;2022-09-09T03:26:27;95918.44;;;22.45;56.98
10476;BME280;26166;48.264;11.436;2022-09-09T03:29:27;95917.63;;;22.45;57.06
10476;BME280;26166;48.264;11.436;2022-09-09T03:32:27;95916.56;;;22.46;57.12
10476;BME280;26166;48.264;11.436;2022-09-09T03:35:28;95923.78;;;22.45;56.93
10476;BME280;26166;48.264;11.436;2022-09-09T03:38:29;95913.91;;;22.46;57.05
10476;BME280;26166;48.264;11.436;2022-09-09T03:41:29;95916.56;;;22.46;57.02
10476;BME280;26166;48.264;11.436;2022-09-09T03:44:30;95912.28;;;22.45;57.02
10476;BME280;26166;48.264;11.436;2022-09-09T03:47:30;95920.31;;;22.45;56.92
10476;BME280;26166;48.264;11.436;2022-09-09T03:50:30;95914.97;;;22.45;57.01
10476;BME280;26166;48.264;11.436;2022-09-09T03:53:32;95918.44;;;22.45;57.04
10476;BME280;26166;48.264;11.436;2022-09-09T03:56:33;95916.00;;;22.44;56.92
10476;BME280;26166;48.264;11.436;2022-09-09T03:59:33;95911.44;;;22.44;56.90
10476;BME280;26166;48.264;11.436;2022-09-09T04:02:35;95905.06;;;22.45;57.06
10476;BME280;26166;48.264;11.436;2022-09-09T04:05:35;95914.13;;;22.44;56.86
10476;BME280;26166;48.264;11.436;2022-09-09T04:08:39;95908.78;;;22.44;56.91
10476;BME280;26166;48.264;11.436;2022-09-09T04:11:40;95907.75;;;22.45;57.12
10476;BME280;26166;48.264;11.436;2022-09-09T04:14:40;95912.28;;;22.45;56.92
10476;BME280;26166;48.264;11.436;2022-09-09T04:17:41;95905.06;;;22.45;56.98
10476;BME280;26166;48.264;11.436;2022-09-09T04:20:42;95911.22;;;22.46;56.91
10476;BME280;26166;48.264;11.436;2022-09-09T04:23:43;95903.19;;;22.46;57.18
10476;BME280;26166;48.264;11.436;2022-09-09T04:26:43;95904.25;;;22.45;57.14
10476;BME280;26166;48.264;11.436;2022-09-09T04:29:43;95909.34;;;22.46;57.18
10476;BME280;26166;48.264;11.436;2022-09-09T04:32:43;95904.81;;;22.47;57.38
10476;BME280;26166;48.264;11.436;2022-09-09T04:35:48;95904.81;;;22.47;57.55
10476;BME280;26166;48.264;11.436;2022-09-09T04:38:49;95906.41;;;22.48;57.35
10476;BME280;26166;48.264;11.436;2022-09-09T04:41:49;95897.03;;;22.45;57.10
10476;BME280;26166;48.264;11.436;2022-09-09T04:44:49;95894.34;;;22.45;57.29
10476;BME280;26166;48.264;11.436;2022-09-09T04:47:50;95893.56;;;22.45;57.28
10476;BME280;26166;48.264;11.436;2022-09-09T04:50:54;95896.22;;;22.45;57.31
10476;BME280;26166;48.264;11.436;2022-09-09T04:53:54;95898.91;;;22.45;57.20
10476;BME280;26166;48.264;11.436;2022-09-09T04:56:54;95897.25;;;22.44;57.49
10476;BME280;26166;48.264;11.436;2022-09-09T04:59:54;95904.25;;;22.45;56.90
10476;BME280;26166;48.264;11.436;2022-09-09T05:02:55;95892.97;;;22.42;56.64
10476;BME280;26166;48.264;11.436;2022-09-09T05:06:01;95897.78;;;22.40;55.80
10476;BME280;26166;48.264;11.436;2022-09-09T05:09:02;95899.09;;;22.38;55.38
10476;BME280;26166;48.264;11.436;2022-09-09T05:12:03;95899.34;;;22.36;54.99
10476;BME280;26166;48.264;11.436;2022-09-09T05:15:04;95896.91;;;22.35;54.71
10476;BME280;26166;48.264;11.436;2022-09-09T05:18:04;95900.63;;;22.34;54.57
10476;BME280;26166;48.264;11.436;2022-09-09T05:21:05;95894.47;;;22.33;54.89
10476;BME280;26166;48.264;11.436;2022-09-09T05:24:06;95898.22;;;22.32;54.71
10476;BME280;26166;48.264;11.436;2022-09-09T05:27:06;95910.53;;;22.33;54.20
10476;BME280;26166;48.264;11.436;2022-09-09T05:30:07;95912.41;;;22.33;54.25
10476;BME280;26166;48.264;11.436;2022-09-09T05:33:08;95910.53;;;22.33;54.38
10476;BME280;26166;48.264;11.436;2022-09-09T05:36:13;95915.88;;;22.33;54.81
10476;BME280;26166;48.264;11.436;2022-09-09T05:39:13;95915.88;;;22.33;54.71
10476;BME280;26166;48.264;11.436;2022-09-09T05:42:13;95915.63;;;22.35;54.89
10476;BME280;26166;48.264;11.436;2022-09-09T05:45:14;95917.50;;;22.34;54.73
10476;BME280;26166;48.264;11.436;2022-09-09T05:48:14;95921.78;;;22.35;55.09
10476;BME280;26166;48.264;11.436;2022-09-09T05:51:19;95916.44;;;22.35;55.11
10476;BME280;26166;48.264;11.436;2022-09-09T05:54:21;95919.94;;;22.36;55.24
10476;BME280;26166;48.264;11.436;2022-09-09T05:57:21;95914.59;;;22.36;55.14
10476;BME280;26166;48.264;11.436;2022-09-09T06:00:21;95912.72;;;22.36;54.89
10476;BME280;26166;48.264;11.436;2022-09-09T06:03:22;95919.94;;;22.36;55.18
10476;BME280;26166;48.264;11.436;2022-09-09T06:06:27;95910.03;;;22.36;55.01
10476;BME280;26166;48.264;11.436;2022-09-09T06:09:30;95915.41;;;22.36;54.96
10476;BME280;26166;48.264;11.436;2022-09-09T06:12:30;95915.41;;;22.36;55.19
10476;BME280;26166;48.264;11.436;2022-09-09T06:15:31;95921.78;;;22.35;54.79
10476;BME280;26166;48.264;11.436;2022-09-09T06:18:31;95921.78;;;22.35;54.83
10476;BME280;26166;48.264;11.436;2022-09-09T06:21:33;95919.09;;;22.35;55.05
10476;BME280;26166;48.264;11.436;2022-09-09T06:24:34;95909.25;;;22.36;55.15
10476;BME280;26166;48.264;11.436;2022-09-09T06:27:34;95910.03;;;22.36;54.79
10476;BME280;26166;48.264;11.436;2022-09-09T06:30:35;95916.19;;;22.37;55.05
10476;BME280;26166;48.264;11.436;2022-09-09T06:33:37;95921.56;;;22.37;55.03
10476;BME280;26166;48.264;11.436;2022-09-09T06:36:40;95922.63;;;22.36;55.17
10476;BME280;26166;48.264;11.436;2022-09-09T06:39:41;95938.41;;;22.37;54.67
10476;BME280;26166;48.264;11.436;2022-09-09T06:42:41;95949.13;;;22.37;54.78
10476;BME280;26166;48.264;11.436;2022-09-09T06:45:41;95950.19;;;22.36;54.84
10476;BME280;26166;48.264;11.436;2022-09-09T06:48:42;95945.63;;;22.37;54.86
10476;BME280;26166;48.264;11.436;2022-09-09T06:51:44;95965.16;;;22.37;54.64
10476;BME280;26166;48.264;11.436;2022-09-09T06:54:44;95975.88;;;22.37;54.47
10476;BME280;26166;48.264;11.436;2022-09-09T06:57:45;95999.38;;;22.35;54.37
10476;BME280;26166;48.264;11.436;2022-09-09T07:00:45;96008.47;;;22.34;54.15
10476;BME280;26166;48.264;11.436;2022-09-09T07:03:46;95992.41;;;22.34;54.48
10476;BME280;26166;48.264;11.436;2022-09-09T07:06:48;96011.41;;;22.33;54.24
10476;BME280;26166;48.264;11.436;2022-09-09T07:09:48;96004.19;;;22.33;54.44
10476;BME280;26166;48.264;11.436;2022-09-09T07:12:52;96007.66;;;22.34;54.36
10476;BME280;26166;48.264;11.436;2022-09-09T07:15:53;96006.84;;;22.33;54.59
10476;BME280;26166;48.264;11.436;2022-09-09T07:18:53;95997.75;;;22.34;54.44
10476;BME280;26166;48.264;11.436;2022-09-09T07:21:55;96002.31;;;22.34;54.44
10476;BME280;26166;48.264;11.436;2022-09-09T07:24:55;95985.44;;;22.33;54.70
10476;BME280;26166;48.264;11.436;2022-09-09T07:27:56;95992.41;;;22.34;54.58
10476;BME280;26166;48.264;11.436;2022-09-09T07:30:56;96005.25;;;22.32;54.75
10476;BME280;26166;48.264;11.436;2022-09-09T07:33:58;96005.25;;;22.32;54.59
10476;BME280;26166;48.264;11.436;2022-09-09T07:36:59;96006.84;;;22.33;54.80
10476;BME280;26166;48.264;11.436;2022-09-09T07:40:00;96006.84;;;22.33;54.87
10476;BME280;26166;48.264;11.436;2022-09-09T07:43:00;95997.22;;;22.32;54.87
10476;BME280;26166;48.264;11.436;2022-09-09T07:46:00;95998.28;;;22.31;54.71
10476;BME280;26166;48.264;11.436;2022-09-09T07:49:03;96006.06;;;22.33;55.25
10476;BME280;26166;48.264;11.436;2022-09-09T07:52:04;96013.28;;;22.32;55.18
10476;BME280;26166;48.264;11.436;2022-09-09T07:55:04;96023.97;;;22.32;55.07
10476;BME280;26166;48.264;11.436;2022-09-09T07:58:04;96027.72;;;22.31;55.23
10476;BME280;26166;48.264;11.436;2022-09-09T08:01:09;96028.25;;;22.33;55.20
10476;BME280;26166;48.264;11.436;2022-09-09T08:04:10;96035.47;;;22.33;54.94
10476;BME280;26166;48.264;11.436;2022-09-09T08:07:15;96033.63;;;22.33;55.12
10476;BME280;26166;48.264;11.436;2022-09-09T08:10:16;96044.31;;;22.33;55.34
10476;BME280;26166;48.264;11.436;2022-09-09T08:13:16;96045.38;;;22.32;55.23
10476;BME280;26166;48.264;11.436;2022-09-09T08:16:19;96045.38;;;22.32;55.49
10476;BME280;26166;48.264;11.436;2022-09-09T08:19:21;96054.22;;;22.33;55.47
10476;BME280;26166;48.264;11.436;2022-09-09T08:22:22;96055.81;;;22.34;55.43
10476;BME280;26166;48.264;11.436;2022-09-09T08:25:22;96048.06;;;22.32;55.29
10476;BME280;26166;48.264;11.436;2022-09-09T08:28:22;96046.19;;;22.33;55.25
10476;BME280;26166;48.264;11.436;2022-09-09T08:31:30;96038.97;;;22.33;55.57
10476;BME280;26166;48.264;11.436;2022-09-09T08:34:30;96030.94;;;22.33;55.33
10476;BME280;26166;48.264;11.436;2022-09-09T08:37:31;96030.94;;;22.33;55.63
10476;BME280;26166;48.264;11.436;2022-09-09T08:40:32;96044.31;;;22.33;55.34
10476;BME280;26166;48.264;11.436;2022-09-09T08:43:38;96038.16;;;22.33;55.72
10476;BME280;26166;48.264;11.436;2022-09-09T08:56:09;96035.22;;;22.34;55.61
10476;BME280;26166;48.264;11.436;2022-09-09T08:59:11;96035.22;;;22.34;55.81
10476;BME280;26166;48.264;11.436;2022-09-09T09:02:15;96033.34;;;22.35;55.89
10476;BME280;26166;48.264;11.436;2022-09-09T09:05:19;96043.25;;;22.34;55.60
10476;BME280;26166;48.264;11.436;2022-09-09T09:08:30;96046.72;;;22.35;55.73
10476;BME280;26166;48.264;11.436;2022-09-09T09:11:37;96048.59;;;22.34;55.70
10476;BME280;26166;48.264;11.436;2022-09-09T09:14:38;96035.22;;;22.34;55.89
10476;BME280;26166;48.264;11.436;2022-09-09T09:17:38;96040.56;;;22.34;55.75
10476;BME280;26166;48.264;11.436;2022-09-09T09:21:03;96040.56;;;22.34;55.76
10476;BME280;26166;48.264;11.436;2022-09-09T09:23:59;96045.13;;;22.34;55.96
10476;BME280;26166;48.264;11.436;2022-09-09T09:27:01;96047.53;;;22.35;55.78
10476;BME280;26166;48.264;11.436;2022-09-09T09:30:20;96041.38;;;22.35;55.94
10476;BME280;26166;48.264;11.436;2022-09-09T09:36:44;96034.16;;;22.35;55.83
10476;BME280;26166;48.264;11.436;2022-09-09T09:39:47;96038.47;;;22.36;55.72
10476;BME280;26166;48.264;11.436;2022-09-09T09:42:58;96042.19;;;22.35;55.97
10476;BME280;26166;48.264;11.436;2022-09-09T09:45:59;96052.91;;;22.35;55.88
10476;BME280;26166;48.264;11.436;2022-09-09T09:49:08;96036.84;;;22.35;55.92
10476;BME280;26166;48.264;11.436;2022-09-09T09:52:12;96048.38;;;22.36;55.64
10476;BME280;26166;48.264;11.436;2022-09-09T09:55:14;96047.53;;;22.35;55.77
10476;BME280;26166;48.264;11.436;2022-09-09T09:58:15;96045.94;;;22.34;55.66
10476;BME280;26166;48.264;11.436;2022-09-09T10:01:22;96056.63;;;22.34;55.78
10476;BME280;26166;48.264;11.436;2022-09-09T10:04:24;96052.09;;;22.35;55.57
10476;BME280;26166;48.264;11.436;2022-09-09T10:07:24;96048.38;;;22.36;55.88
10476;BME280;26166;48.264;11.436;2022-09-09T10:10:26;96051.06;;;22.36;55.75
10476;BME280;26166;48.264;11.436;2022-09-09T10:13:39;96044.88;;;22.35;55.94
10476;BME280;26166;48.264;11.436;2022-09-09T10:23:29;96049.19;;;22.36;55.91
10476;BME280;26166;48.264;11.436;2022-09-09T10:29:55;96039.28;;;22.37;56.00
10476;BME280;26166;48.264;11.436;2022-09-09T10:33:03;96038.47;;;22.36;55.83
10476;BME280;26166;48.264;11.436;2022-09-09T10:42:33;96036.84;;;22.35;55.94
10476;BME280;26166;48.264;11.436;2022-09-09T10:45:44;96043.03;;;22.36;56.11
10476;BME280;26166;48.264;11.436;2022-09-09T10:57:55;96031.47;;;22.35;55.74
10476;BME280;26166;48.264;11.436;2022-09-09T11:00:58;96032.06;;;22.37;56.70
10476;BME280;26166;48.264;11.436;2022-09-09T11:04:10;96034.47;;;22.39;56.44
10476;BME280;26166;48.264;11.436;2022-09-09T11:07:14;96031.81;;;22.39;56.18
10476;BME280;26166;48.264;11.436;2022-09-09T11:13:25;96036.34;;;22.38;56.39
10476;BME280;26166;48.264;11.436;2022-09-09T11:19:47;96031.00;;;22.38;56.19
10476;BME280;26166;48.264;11.436;2022-09-09T11:22:48;96034.75;;;22.37;56.24
10476;BME280;26166;48.264;11.436;2022-09-09T11:25:52;96024.03;;;22.37;56.06
10476;BME280;26166;48.264;11.436;2022-09-09T11:35:22;96023.56;;;22.40;56.32
10476;BME280;26166;48.264;11.436;2022-09-09T11:38:26;96016.34;;;22.41;56.22
10476;BME280;26166;48.264;11.436;2022-09-09T11:41:32;96016.06;;;22.42;56.34
10476;BME280;26166;48.264;11.436;2022-09-09T11:44:33;96022.22;;;22.43;56.38
10476;BME280;26166;48.264;11.436;2022-09-09T11:47:34;96024.91;;;22.43;56.39
10476;BME280;26166;48.264;11.436;2022-09-09T11:50:35;96020.38;;;22.44;56.07
10476;BME280;26166;48.264;11.436;2022-09-09T11:53:47;96020.13;;;22.45;56.31
10476;BME280;26166;48.264;11.436;2022-09-09T11:56:49;96019.34;;;22.45;56.14
10476;BME280;26166;48.264;11.436;2022-09-09T11:59:52;96017.47;;;22.45;56.25
10476;BME280;26166;48.264;11.436;2022-09-09T12:02:52;96020.94;;;22.46;56.03
10476;BME280;26166;48.264;11.436;2022-09-09T12:05:52;96027.09;;;22.46;55.97
10476;BME280;26166;48.264;11.436;2022-09-09T12:08:54;96020.69;;;22.47;55.86
10476;BME280;26166;48.264;11.436;2022-09-09T12:18:14;96018.34;;;22.51;56.34
10476;BME280;26166;48.264;11.436;2022-09-09T12:24:30;96008.75;;;22.55;56.20
10476;BME280;26166;48.264;11.436;2022-09-09T12:27:34;96006.06;;;22.55;56.28
10476;BME280;26166;48.264;11.436;2022-09-09T12:30:40;96003.94;;;22.57;56.12
10476;BME280;26166;48.264;11.436;2022-09-09T12:33:44;95996.72;;;22.57;56.21
10476;BME280;26166;48.264;11.436;2022-09-09T12:36:49;95996.72;;;22.57;56.15
10476;BME280;26166;48.264;11.436;2022-09-09T12:42:55;95994.88;;;22.58;55.94
10476;BME280;26166;48.264;11.436;2022-09-09T12:45:57;95992.22;;;22.58;55.97
10476;BME280;26166;48.264;11.436;2022-09-09T12:49:00;96003.72;;;22.58;55.90
10476;BME280;26166;48.264;11.436;2022-09-09T12:52:04;95993.00;;;22.58;55.69
10476;BME280;26166;48.264;11.436;2022-09-09T12:55:05;95992.22;;;22.58;55.72
10476;BME280;26166;48.264;11.436;2022-09-09T12:58:06;95983.59;;;22.56;55.77
10476;BME280;26166;48.264;11.436;2022-09-09T13:01:17;95981.97;;;22.55;55.75
10476;BME280;26166;48.264;11.436;2022-09-09T13:04:21;95975.03;;;22.54;55.59
10476;BME280;26166;48.264;11.436;2022-09-09T13:07:24;95969.66;;;22.54;55.87
10476;BME280;26166;48.264;11.436;2022-09-09T13:10:26;95973.38;;;22.53;55.82
10476;BME280;26166;48.264;11.436;2022-09-09T13:16:33;95967.03;;;22.59;56.21
10476;BME280;26166;48.264;11.436;2022-09-09T13:19:35;95960.13;;;22.63;56.84
10476;BME280;26166;48.264;11.436;2022-09-09T13:22:36;95956.56;;;22.79;57.90
10476;BME280;26166;48.264;11.436;2022-09-09T13:25:37;95953.50;;;23.47;57.17
10476;BME280;26166;48.264;11.436;2022-09-09T13:28:38;95942.47;;;24.65;54.24
10476;BME280;26166;48.264;11.436;2022-09-09T13:31:38;95935.38;;;25.62;52.23
10476;BME280;26166;48.264;11.436;2022-09-09T13:34:39;95929.06;;;26.38;50.21
10476;BME280;26166;48.264;11.436;2022-09-09T13:37:39;95923.69;;;27.03;49.03
10476;BME280;26166;48.264;11.436;2022-09-09T13:40:59;95925.47;;;27.57;47.54
10476;BME280;26166;48.264;11.436;2022-09-09T13:44:02;95922.09;;;28.05;46.26
10476;BME280;26166;48.264;11.436;2022-09-09T13:50:37;95913.56;;;28.46;44.98
10476;BME280;26166;48.264;11.436;2022-09-09T13:53:30;95912.63;;;28.55;43.91
10476;BME280;26166;48.264;11.436;2022-09-09T13:56:30;95905.44;;;28.22;44.02
10476;BME280;26166;48.264;11.436;2022-09-09T13:59:31;95908.53;;;27.86;44.43
10476;BME280;26166;48.264;11.436;2022-09-09T14:02:32;95905.34;;;27.45;45.67
10476;BME280;26166;48.264;11.436;2022-09-09T14:05:32;95910.50;;;27.02;46.06
10476;BME280;26166;48.264;11.436;2022-09-09T14:08:33;95910.19;;;26.54;47.08
10476;BME280;26166;48.264;11.436;2022-09-09T14:11:37;95919.25;;;25.93;48.49
10476;BME280;26166;48.264;11.436;2022-09-09T14:14:37;95918.19;;;25.63;49.10
10476;BME280;26166;48.264;11.436;2022-09-09T14:17:38;95924.91;;;25.40;49.63
10476;BME280;26166;48.264;11.436;2022-09-09T14:20:39;95934.56;;;25.26;49.97
10476;BME280;26166;48.264;11.436;2022-09-09T14:23:39;95938.34;;;25.15;50.19
10476;BME280;26166;48.264;11.436;2022-09-09T14:26:40;95946.03;;;25.01;50.72
10476;BME280;26166;48.264;11.436;2022-09-09T14:29:40;95941.47;;;24.91;50.82
10476;BME280;26166;48.264;11.436;2022-09-09T14:32:41;95940.91;;;24.79;51.03
10476;BME280;26166;48.264;11.436;2022-09-09T14:35:41;95941.94;;;24.68;51.50
10476;BME280;26166;48.264;11.436;2022-09-09T14:38:42;95948.88;;;24.59;51.71
10476;BME280;26166;48.264;11.436;2022-09-09T14:41:42;95951.28;;;24.50;51.84
10476;BME280;26166;48.264;11.436;2022-09-09T14:44:43;95944.53;;;24.48;51.83
10476;BME280;26166;48.264;11.436;2022-09-09T14:47:43;95954.44;;;24.37;52.28
10476;BME280;26166;48.264;11.436;2022-09-09T14:50:43;95950.91;;;24.31;52.17
10476;BME280;26166;48.264;11.436;2022-09-09T14:53:43;95951.66;;;24.22;52.59
10476;BME280;26166;48.264;11.436;2022-09-09T14:56:43;95953.25;;;24.17;52.38
10476;BME280;26166;48.264;11.436;2022-09-09T14:59:44;95961.22;;;24.12;52.77
10476;BME280;26166;48.264;11.436;2022-09-09T15:02:44;95962.28;;;24.06;52.62
10476;BME280;26166;48.264;11.436;2022-09-09T15:05:44;95955.00;;;24.02;52.72
10476;BME280;26166;48.264;11.436;2022-09-09T15:08:46;95967.59;;;23.96;53.03
10476;BME280;26166;48.264;11.436;2022-09-09T15:11:47;95955.47;;;23.88;53.39
10476;BME280;26166;48.264;11.436;2022-09-09T15:14:47;95951.13;;;23.82;53.38
10476;BME280;26166;48.264;11.436;2022-09-09T15:17:48;95932.56;;;23.76;53.58
10476;BME280;26166;48.264;11.436;2022-09-09T15:20:48;95940.84;;;23.69;53.54
10476;BME280;26166;48.264;11.436;2022-09-09T15:23:48;95937.06;;;23.65;53.64
10476;BME280;26166;48.264;11.436;2022-09-09T15:26:49;95927.88;;;23.61;54.04
10476;BME280;26166;48.264;11.436;2022-09-09T15:29:49;95936.44;;;23.58;53.87
10476;BME280;26166;48.264;11.436;2022-09-09T15:32:50;95925.41;;;23.54;54.10
10476;BME280;26166;48.264;11.436;2022-09-09T15:35:50;95925.94;;;23.51;54.03
10476;BME280;26166;48.264;11.436;2022-09-09T15:38:51;95924.31;;;23.50;54.17
10476;BME280;26166;48.264;11.436;2022-09-09T15:41:51;95922.41;;;23.46;54.57
10476;BME280;26166;48.264;11.436;2022-09-09T15:44:52;95928.28;;;23.42;54.22
10476;BME280;26166;48.264;11.436;2022-09-09T15:47:52;95938.19;;;23.42;54.33
10476;BME280;26166;48.264;11.436;2022-09-09T15:51:00;95928.78;;;23.39;54.58
10476;BME280;26166;48.264;11.436;2022-09-09T15:54:02;95914.84;;;23.37;54.28
10476;BME280;26166;48.264;11.436;2022-09-09T15:57:03;95925.00;;;23.35;54.59
10476;BME280;26166;48.264;11.436;2022-09-09T16:00:04;95919.34;;;23.32;54.67
10476;BME280;26166;48.264;11.436;2022-09-09T16:03:04;95919.59;;;23.30;54.70
10476;BME280;26166;48.264;11.436;2022-09-09T16:06:04;95921.72;;;23.28;54.74
10476;BME280;26166;48.264;11.436;2022-09-09T16:09:05;95915.00;;;23.26;54.68
10476;BME280;26166;48.264;11.436;2022-09-09T16:12:05;95912.03;;;23.22;54.71
10476;BME280;26166;48.264;11.436;2022-09-09T16:15:06;95915.78;;;23.21;55.14
10476;BME280;26166;48.264;11.436;2022-09-09T16:18:07;95917.88;;;23.19;55.01
10476;BME280;26166;48.264;11.436;2022-09-09T16:21:07;95909.31;;;23.17;55.01
10476;BME280;26166;48.264;11.436;2022-09-09T16:24:09;95905.25;;;23.14;54.96
10476;BME280;26166;48.264;11.436;2022-09-09T16:27:09;95903.63;;;23.13;55.22
10476;BME280;26166;48.264;11.436;2022-09-09T16:30:11;95905.78;;;23.11;55.23
10476;BME280;26166;48.264;11.436;2022-09-09T16:33:11;95904.13;;;23.10;55.41
10476;BME280;26166;48.264;11.436;2022-09-09T16:36:18;95891.81;;;23.09;55.24
10476;BME280;26166;48.264;11.436;2022-09-09T16:39:20;95899.31;;;23.07;55.22
10476;BME280;26166;48.264;11.436;2022-09-09T16:42:20;95897.94;;;23.05;55.19
10476;BME280;26166;48.264;11.436;2022-09-09T16:45:20;95896.06;;;23.05;55.25
10476;BME280;26166;48.264;11.436;2022-09-09T16:48:21;95907.03;;;23.04;55.32
10476;BME280;26166;48.264;11.436;2022-09-09T16:51:23;95894.16;;;23.01;55.34
10476;BME280;26166;48.264;11.436;2022-09-09T16:54:23;95904.84;;;23.01;55.36
10476;BME280;26166;48.264;11.436;2022-09-09T16:57:26;95895.22;;;23.00;55.18
10476;BME280;26166;48.264;11.436;2022-09-09T17:00:30;95900.03;;;22.98;55.55
10476;BME280;26166;48.264;11.436;2022-09-09T17:03:31;95903.75;;;22.97;55.55
10476;BME280;26166;48.264;11.436;2022-09-09T17:06:34;95906.69;;;22.95;55.58
10476;BME280;26166;48.264;11.436;2022-09-09T17:09:35;95906.94;;;22.94;55.38
10476;BME280;26166;48.264;11.436;2022-09-09T17:12:35;95909.88;;;22.92;55.54
10476;BME280;26166;48.264;11.436;2022-09-09T17:15:39;95910.13;;;22.90;55.50
10476;BME280;26166;48.264;11.436;2022-09-09T17:18:41;95912.81;;;22.90;55.61
10476;BME280;26166;48.264;11.436;2022-09-09T17:21:41;95921.91;;;22.89;55.63
10476;BME280;26166;48.264;11.436;2022-09-09T17:24:41;95919.22;;;22.89;55.76
10476;BME280;26166;48.264;11.436;2022-09-09T17:27:43;95912.19;;;22.88;55.65
10476;BME280;26166;48.264;11.436;2022-09-09T17:30:44;95926.66;;;22.87;55.67
10476;BME280;26166;48.264;11.436;2022-09-09T17:33:46;95921.31;;;22.87;55.69
10476;BME280;26166;48.264;11.436;2022-09-09T17:36:46;95924.25;;;22.86;55.59
10476;BME280;26166;48.264;11.436;2022-09-09T17:39:46;95924.25;;;22.86;55.81
10476;BME280;26166;48.264;11.436;2022-09-09T17:42:47;95922.63;;;22.85;55.58
10476;BME280;26166;48.264;11.436;2022-09-09T17:45:47;95930.91;;;22.83;55.85